Latest Weather Observations for Brisbane Airport

IDQ60901

Issued at 1:35 pm EST Friday 25 April 2014 (issued every 10 minutes, with the page automatically refreshed every 10 minutes)

About weather observations | Map of Brisbane area stations | Latest observations for Brisbane area | Other Formats
Station Details ID: 040842 Name: BRISBANE AERO Lat: -27.39 Lon: 153.13 Height: 4.51 m
Data from the previous 72 hours. | See also: Recent months at Brisbane Airport
Date/Time
EST
Tmp

°C
App
Tmp
°C
Dew
Point
°C
Rel
Hum
%
Delta-T

°C
Wind Press
QNH
hPa
Press
MSL
hPa
Rain
since
9 am
mm
Dir
 
Spd
km/h
Gust
km/h
Spd
kts
Gust
kts
25/01:30pm 27.1 25.0 14.8 47 7.4 ENE 19 24 10 13 1016.1 - 0.0
25/01:00pm 26.7 25.6 14.3 46 7.4 ESE 13 19 7 10 1016.3 - 0.0
25/12:30pm 26.6 26.7 15.4 50 6.8 ESE 9 19 5 10 1016.8 - 0.0
25/12:00pm 26.4 26.2 15.7 51 6.5 SE 11 19 6 10 1017.2 1017.2 0.0
25/11:30am 26.0 25.9 15.0 50 6.6 SE 9 17 5 9 1017.7 - 0.0
25/11:00am 25.9 26.4 16.5 56 5.8 ESE 9 17 5 9 1018.1 - 0.0
25/10:30am 25.3 25.6 17.1 60 5.1 SE 11 15 6 8 1018.4 - 0.0
25/10:00am 24.4 25.3 17.5 65 4.3 S 9 15 5 8 1018.6 - 0.0
25/09:30am 23.4 23.4 17.2 68 3.8 SSW 13 17 7 9 1018.9 - 0.0
25/09:00am 22.1 21.6 17.0 73 3.1 SSW 15 20 8 11 1019.0 1019.0 0.0
25/08:30am 20.2 19.4 17.1 82 1.9 SSW 17 19 9 10 1018.9 - 0.0
25/08:00am 19.7 19.7 17.2 85 1.5 SSW 13 17 7 9 1018.4 - 0.0
25/07:30am 19.0 18.9 17.0 88 1.2 SSW 13 15 7 8 1017.9 - 0.0
25/07:00am 18.2 17.9 16.5 90 1.0 SSW 13 17 7 9 1017.5 - 0.0
25/06:30am 17.9 17.1 16.2 90 1.0 S 15 19 8 10 1017.0 - 0.0
25/06:00am 17.5 16.7 16.1 91 0.8 SSW 15 17 8 9 1016.7 1016.7 0.0
25/05:30am 16.5 15.8 15.5 94 0.6 SSW 13 19 7 10 1016.3 - 0.0
25/05:00am 17.0 17.3 16.0 94 0.6 SSW 9 13 5 7 1016.1 - 0.0
25/04:30am 16.3 16.1 15.6 96 0.4 SSW 11 13 6 7 1015.9 - 0.0
25/04:00am 16.4 16.3 15.9 97 0.3 SSW 11 13 6 7 1015.6 - 0.0
25/03:30am 17.0 17.4 16.3 96 0.4 SSW 9 11 5 6 1015.6 - 0.0
25/03:00am 17.6 18.3 17.1 97 0.3 SSW 9 9 5 5 1015.6 1015.6 0.0
25/02:30am 16.9 18.3 16.4 97 0.3 SSW 4 7 2 4 1015.6 - 0.0
25/02:00am 17.1 18.0 16.6 97 0.3 SSW 7 9 4 5 1015.8 - 0.0
25/01:30am 17.6 18.6 16.9 96 0.4 SSW 7 9 4 5 1016.0 - 0.0
25/01:00am 18.4 19.2 17.2 93 0.7 SSW 9 9 5 5 1016.2 - 0.0
25/12:30am 18.2 19.5 17.0 93 0.7 SSW 6 7 3 4 1016.4 - 0.0
25/12:00am 18.3 19.0 17.0 92 0.8 SW 9 11 5 6 1016.4 1016.4 0.0
 
Date/Time
EST
Tmp

°C
App
Tmp
°C
Dew
Point
°C
Rel
Hum
%
Delta-T

°C
Wind Press
QNH
hPa
Press
MSL
hPa
Rain
since
9 am
mm
Dir
 
Spd
km/h
Gust
km/h
Spd
kts
Gust
kts
24/11:30pm 19.2 20.5 17.6 90 1.0 SW 7 9 4 5 1016.4 - 0.0
24/11:00pm 19.2 20.5 17.6 90 1.0 SW 7 7 4 4 1016.5 - 0.0
24/10:30pm 19.5 20.8 17.5 88 1.2 SSW 7 7 4 4 1016.6 - 0.0
24/10:00pm 19.8 21.3 17.7 88 1.3 W 6 9 3 5 1016.5 - 0.0
24/09:30pm 20.6 22.4 18.3 87 1.4 NNE 6 9 3 5 1016.4 - 0.0
24/09:00pm 21.1 22.1 18.7 86 1.5 NNE 11 15 6 8 1016.5 1016.5 0.0
24/08:30pm 19.9 20.2 18.0 89 1.2 NNE 13 15 7 8 1016.2 - 0.0
24/08:00pm 20.4 21.2 18.1 87 1.4 NNE 11 13 6 7 1016.2 - 0.0
24/07:30pm 21.0 21.9 18.3 84 1.7 NNE 11 13 6 7 1016.1 - 0.0
24/07:00pm 21.0 21.8 18.1 83 1.8 NNE 11 13 6 7 1015.7 - 0.0
24/06:30pm 21.1 21.8 18.0 82 1.9 NNE 11 17 6 9 1015.3 - 0.0
24/06:00pm 21.1 22.1 17.7 81 2.1 NNE 9 11 5 6 1014.6 1014.6 0.0
24/05:30pm 21.6 22.1 17.4 77 2.6 NNE 11 13 6 7 1014.5 - 0.0
24/05:00pm 22.8 23.0 17.6 72 3.2 NNE 13 17 7 9 1014.4 - 0.0
24/04:30pm 24.6 23.7 16.8 62 4.8 NNE 17 20 9 11 1014.3 - 0.0
24/04:00pm 25.7 23.9 16.1 55 5.9 NE 20 24 11 13 1013.8 - 0.0
24/03:30pm 26.2 23.3 12.3 42 8.0 NNE 19 22 10 12 1013.7 - 0.0
24/03:00pm 26.5 24.3 14.3 47 7.3 NE 19 24 10 13 1013.9 1013.9 0.0
24/02:30pm 26.6 25.5 16.4 53 6.3 NNE 17 20 9 11 1014.0 - 0.0
24/02:00pm 25.9 25.1 17.1 58 5.5 NNE 17 20 9 11 1014.0 - 0.0
24/01:30pm 25.9 24.5 16.9 57 5.6 NNE 20 28 11 15 1014.3 - 0.0
24/01:00pm 25.9 24.6 17.2 58 5.4 NNE 20 26 11 14 1014.9 - 0.0
24/12:30pm 26.4 25.4 17.5 58 5.6 NNE 19 26 10 14 1015.3 - 0.0
24/12:00pm 26.5 25.7 17.2 56 5.8 NNE 17 20 9 11 1015.7 1015.7 0.0
24/11:30am 26.5 26.1 16.1 52 6.4 N 13 20 7 11 1016.2 - 0.0
24/11:00am 25.7 25.9 15.7 54 6.1 SW 9 15 5 8 1016.4 - 0.0
24/10:30am 24.9 24.4 15.8 57 5.5 SSW 13 22 7 12 1016.8 - 0.0
24/10:00am 24.2 23.1 15.4 58 5.3 SSW 15 19 8 10 1017.4 - 0.0
24/09:30am 22.9 22.7 16.7 68 3.8 SSW 13 17 7 9 1017.8 - 0.0
24/09:00am 21.9 21.7 16.8 73 3.1 SW 13 15 7 8 1018.0 1018.0 0.0
24/08:30am 20.7 20.1 16.7 78 2.4 SSW 15 17 8 9 1017.6 - 0.0
24/08:00am 19.7 19.6 16.9 84 1.7 SSW 13 17 7 9 1017.5 - 0.0
24/07:30am 18.5 18.7 16.7 89 1.1 SW 11 13 6 7 1017.6 - 0.0
24/07:00am 17.1 16.5 15.6 91 0.9 SSW 13 17 7 9 1016.7 - 0.0
24/06:30am 15.6 14.6 14.5 93 0.6 SSW 13 15 7 8 1016.5 - 0.0
24/06:00am 15.5 14.5 14.6 94 0.5 SSW 13 15 7 8 1016.2 1016.2 0.0
24/05:30am 15.9 15.1 15.2 96 0.4 SSW 13 15 7 8 1016.0 - 0.0
24/05:00am 16.0 15.3 15.3 96 0.4 SSW 13 15 7 8 1016.0 - 0.0
24/04:36am 16.3 16.4 15.6 96 0.4 S 9 11 5 6 1015.9 - 0.0
24/04:30am 16.3 16.4 15.6 96 0.4 SSW 9 13 5 7 1015.9 - 0.0
24/04:00am 17.2 17.1 16.0 93 0.7 S 11 15 6 8 1015.6 - 0.0
24/03:30am 17.7 17.4 16.5 93 0.7 SSW 13 17 7 9 1015.5 - 0.0
24/03:00am 16.9 16.5 16.1 95 0.5 SSW 13 15 7 8 1015.8 1015.8 0.0
24/02:30am 17.4 17.1 16.4 94 0.6 SSW 13 15 7 8 1016.0 - 0.0
24/02:00am 16.8 17.2 16.3 97 0.3 SSW 9 11 5 6 1016.1 - 0.0
24/01:30am 16.3 16.5 15.8 97 0.3 SSW 9 11 5 6 1016.3 - 0.0
24/01:00am 16.9 18.9 16.1 95 0.5 CALM 0 0 0 0 1016.6 - 0.0
24/12:30am 17.2 19.4 16.5 96 0.4 CALM 0 - 0 - 1017.0 - 0.0
24/12:00am 18.1 20.5 16.9 93 0.7 CALM 0 0 0 0 1017.2 1017.2 0.0
 
Date/Time
EST
Tmp

°C
App
Tmp
°C
Dew
Point
°C
Rel
Hum
%
Delta-T

°C
Wind Press
QNH
hPa
Press
MSL
hPa
Rain
since
9 am
mm
Dir
 
Spd
km/h
Gust
km/h
Spd
kts
Gust
kts
23/11:39pm 18.1 20.3 16.6 91 0.9 CALM 0 0 0 0 1017.4 - 0.0
23/11:30pm 18.1 20.4 16.8 92 0.8 CALM 0 7 0 4 1017.4 - 0.0
23/11:00pm 18.7 21.0 16.7 88 1.2 CALM 0 6 0 3 1017.6 - 0.0
23/10:30pm 18.8 20.7 16.8 88 1.2 W 2 7 1 4 1017.6 - 0.0
23/10:00pm 19.2 20.1 16.7 85 1.5 WNW 7 15 4 8 1017.7 - 0.0
23/09:30pm 20.1 20.8 17.0 82 1.9 NW 9 13 5 7 1017.8 - 0.0
23/09:00pm 20.7 21.0 17.1 80 2.2 NW 11 15 6 8 1017.6 1017.6 0.0
23/08:30pm 21.2 20.5 17.3 78 2.4 NW 17 26 9 14 1017.5 - 0.0
23/08:00pm 21.8 21.2 18.4 81 2.1 NNW 19 22 10 12 1017.5 - 0.0
23/07:30pm 21.3 21.0 17.4 78 2.4 N 15 19 8 10 1017.2 - 0.0
23/07:00pm 21.6 21.3 17.4 77 2.6 N 15 19 8 10 1017.1 - 0.0
23/06:30pm 22.4 21.6 17.2 72 3.2 N 17 24 9 13 1017.0 - 0.0
23/06:00pm 22.1 21.4 17.4 74 2.9 N 17 20 9 11 1016.8 1016.8 0.0
23/05:30pm 22.5 22.1 17.1 71 3.3 N 15 19 8 10 1016.5 - 0.0
23/05:00pm 23.6 23.0 16.6 65 4.3 NNE 15 17 8 9 1016.1 - 0.0
23/04:30pm 24.4 23.6 16.0 59 5.1 NNE 15 19 8 10 1015.9 - 0.0
23/04:00pm 25.3 24.0 15.7 55 5.8 NNE 17 22 9 12 1015.7 - 0.0
23/03:30pm 25.6 23.3 14.1 49 6.8 NNE 19 26 10 14 1015.7 - 0.0
23/03:00pm 25.9 23.0 12.8 44 7.6 NNE 20 26 11 14 1015.6 1015.6 0.0
23/02:30pm 26.5 23.6 14.0 46 7.4 NNE 22 26 12 14 1015.9 - 0.0
23/02:00pm 25.7 22.1 10.7 39 8.4 NNE 20 26 11 14 1015.9 - 0.0
23/01:30pm 26.2 23.4 14.3 48 7.1 NNE 22 26 12 14 1016.1 - 0.0
23/01:00pm 25.8 24.1 14.8 50 6.6 NNE 17 24 9 13 1016.4 - 0.0
23/12:30pm 26.2 23.8 12.8 43 7.8 NNE 17 22 9 12 1016.9 - 0.0
23/12:00pm 25.9 24.9 15.7 53 6.2 NE 15 19 8 10 1017.5 1017.5 0.0
23/11:30am 26.3 23.8 12.4 42 8.0 N 17 22 9 12 1018.1 - 0.0
23/11:00am 26.3 25.4 13.8 46 7.4 N 11 19 6 10 1018.6 - 0.0
23/10:30am 25.5 25.6 15.4 53 6.1 WSW 9 15 5 8 1019.0 - 0.0
23/10:00am 24.3 23.6 15.3 57 5.4 SSW 13 15 7 8 1019.2 - 0.0
23/09:30am 23.3 22.7 15.6 62 4.6 SSW 13 19 7 10 1019.6 - 0.0
23/09:00am 21.8 20.0 15.4 67 3.8 SSW 19 22 10 12 1019.8 1019.8 0.0
23/08:30am 20.6 19.1 15.2 71 3.2 SSW 17 19 9 10 1019.8 - 0.0
23/08:00am 19.5 18.0 15.4 77 2.4 SSW 17 20 9 11 1019.9 - 0.0
23/07:30am 18.6 17.7 14.8 78 2.2 SSW 13 19 7 10 1019.8 - 0.0
23/07:00am 17.5 16.9 14.7 83 1.6 S 11 15 6 8 1019.4 - 0.0
23/06:30am 16.5 15.8 14.4 87 1.2 SSW 11 15 6 8 1019.2 - 0.0
23/06:00am 16.7 15.2 14.2 85 1.4 SSW 15 17 8 9 1019.0 1019.0 0.0
23/05:30am 16.4 16.1 14.3 87 1.2 SSW 9 17 5 9 1019.0 - 0.0
23/05:00am 16.1 15.4 14.3 89 1.0 SSW 11 13 6 7 1018.8 - 0.0
23/04:30am 16.3 15.7 14.7 90 0.9 SSW 11 11 6 6 1018.2 - 0.0
23/04:00am 16.7 16.2 14.8 88 1.1 SSW 11 13 6 7 1018.0 - 0.0
23/03:30am 17.1 16.6 14.8 86 1.3 SSW 11 11 6 6 1018.0 - 0.0
23/03:00am 17.2 17.1 15.0 87 1.3 SSW 9 11 5 6 1018.2 1018.2 0.0
23/02:30am 16.9 17.5 15.4 91 0.9 SSW 6 7 3 4 1018.4 - 0.0
23/02:00am 17.1 17.7 15.2 88 1.1 SSW 6 7 3 4 1018.5 - 0.0
23/01:30am 17.8 18.2 15.2 85 1.5 SSW 7 11 4 6 1018.8 - 0.0
23/01:00am 17.3 18.2 15.1 87 1.3 WSW 4 9 2 5 1019.0 - 0.0
23/12:30am 18.4 20.2 15.5 83 1.7 CALM 0 0 0 0 1019.1 - 0.0
23/12:00am 18.4 18.8 15.3 82 1.8 WSW 7 9 4 5 1019.1 1019.1 0.0
 
Date/Time
EST
Tmp

°C
App
Tmp
°C
Dew
Point
°C
Rel
Hum
%
Delta-T

°C
Wind Press
QNH
hPa
Press
MSL
hPa
Rain
since
9 am
mm
Dir
 
Spd
km/h
Gust
km/h
Spd
kts
Gust
kts
22/11:30pm 18.7 19.2 15.6 82 1.8 W 7 9 4 5 1019.3 - 0.0
22/11:00pm 19.1 19.7 15.7 80 2.0 WSW 7 11 4 6 1019.3 - 0.0
22/10:30pm 20.0 20.7 15.6 76 2.6 W 6 7 3 4 1019.5 - 0.0
22/10:00pm 19.5 19.6 15.6 78 2.3 W 9 13 5 7 1019.7 - 0.0
22/09:30pm 21.1 20.4 15.5 70 3.3 N 13 19 7 10 1019.7 - 0.0
22/09:00pm 20.1 18.7 14.4 69 3.3 NNE 15 17 8 9 1019.7 1019.7 0.0
22/08:30pm 20.4 19.3 14.2 67 3.6 NNE 13 17 7 9 1019.8 - 0.0
22/08:00pm 20.0 18.8 14.1 69 3.4 NNE 13 15 7 8 1019.7 - 0.0
22/07:30pm 20.3 20.0 14.3 68 3.5 NNE 9 13 5 7 1019.4 - 0.0
22/07:00pm 21.1 19.7 14.6 66 3.8 NNE 15 19 8 10 1019.4 - 0.0
22/06:30pm 21.3 19.9 14.6 65 3.9 NNE 15 19 8 10 1019.1 - 0.0
22/06:00pm 21.0 20.2 15.1 69 3.5 NNE 13 17 7 9 1018.8 1018.8 0.0
22/05:30pm 21.3 20.8 14.8 66 3.8 NE 11 13 6 7 1018.7 - 0.0
22/05:00pm 23.0 22.5 14.9 60 4.8 NE 11 15 6 8 1018.7 - 0.0
22/04:30pm 24.3 23.1 13.9 52 6.1 NE 13 17 7 9 1018.7 - 0.0
22/04:00pm 24.9 22.8 13.6 49 6.6 NE 17 20 9 11 1018.6 - 0.0
22/03:30pm 25.3 23.2 13.5 48 6.9 NE 17 22 9 12 1018.7 - 0.0
22/03:00pm 25.7 23.7 12.7 44 7.5 NE 15 19 8 10 1018.5 - 0.0
22/02:30pm 25.7 23.7 11.4 40 8.1 NE 13 19 7 10 1018.6 - 0.0
22/02:00pm 25.9 23.3 10.7 38 8.5 NE 15 20 8 11 1018.8 - 0.0

Latest Capital City Observations: Canberra | Sydney | Melbourne | Brisbane | Adelaide | Perth | Hobart | Darwin

Other Formats:

Comma delimited format used in spreadsheet applications
http://www.bom.gov.au/fwo/IDQ60901/IDQ60901.94578.axf

JavaScript Object Notation format (JSON) in row-major order
http://www.bom.gov.au/fwo/IDQ60901/IDQ60901.94578.json